createdAt,value
2022-09-01T00:00:08.019Z,102692.84
2022-09-01T00:02:35.762Z,102677.09
2022-09-01T00:05:04.753Z,102683.19
2022-09-01T00:07:32.433Z,102677.09
2022-09-01T00:10:00.488Z,102684.16
2022-09-01T00:12:30.116Z,102689.44
2022-09-01T00:14:59.169Z,102684.16
2022-09-01T00:17:27.618Z,102681.53
2022-09-01T00:19:55.407Z,102685.03
2022-09-01T00:22:29.506Z,102674.50
2022-09-01T00:24:56.849Z,102679.75
2022-09-01T00:27:27.800Z,102615.88
2022-09-01T00:30:00.040Z,102686.84
2022-09-01T00:32:28.497Z,102679.84
2022-09-01T00:34:56.958Z,102680.78
2022-09-01T00:37:24.652Z,102685.16
2022-09-01T00:39:52.210Z,102675.56
2022-09-01T00:42:20.059Z,102682.56
2022-09-01T00:44:47.687Z,102670.28
2022-09-01T00:47:16.604Z,102675.50
2022-09-01T00:49:49.941Z,102660.63
2022-09-01T00:52:38.765Z,102670.25
2022-09-01T00:55:17.728Z,102672.06
2022-09-01T00:57:46.672Z,102666.78
2022-09-01T01:00:18.789Z,102670.31
2022-09-01T01:02:47.969Z,102654.50
2022-09-01T01:05:16.239Z,102665.09
2022-09-01T01:07:47.646Z,102663.31
2022-09-01T01:10:20.137Z,102664.22
2022-09-01T01:12:51.902Z,102665.13
2022-09-01T01:15:20.276Z,102630.16
2022-09-01T01:17:47.396Z,102658.13
2022-09-01T01:20:37.032Z,102656.41
2022-09-01T01:23:21.385Z,102658.16
2022-09-01T01:25:57.397Z,102666.13
2022-09-01T01:28:30.386Z,102659.06
2022-09-01T01:31:02.121Z,102664.41
2022-09-01T01:33:42.819Z,102658.25
2022-09-01T01:36:32.357Z,102661.78
2022-09-01T01:39:15.461Z,102662.69
2022-09-01T01:41:48.711Z,102663.63
2022-09-01T01:44:20.882Z,102657.47
2022-09-01T01:46:52.690Z,102661.88
2022-09-01T01:49:24.817Z,102659.25
2022-09-01T01:51:56.184Z,102661.88
2022-09-01T01:54:25.883Z,102656.59
2022-09-01T01:56:53.023Z,102654.84
2022-09-01T01:59:20.602Z,102652.22
2022-09-01T02:01:49.289Z,102639.97
2022-09-01T02:04:17.993Z,102658.41
2022-09-01T02:06:47.831Z,102635.63
2022-09-01T02:09:18.857Z,102630.38
2022-09-01T02:11:46.033Z,102647.94
2022-09-01T02:14:13.691Z,102636.47
2022-09-01T02:16:41.241Z,102640.91
2022-09-01T02:19:12.132Z,102640.06
2022-09-01T02:21:44.594Z,102630.44
2022-09-01T02:24:11.943Z,102634.78
2022-09-01T02:26:45.841Z,102643.59
2022-09-01T02:29:22.976Z,102648.88
2022-09-01T02:31:53.995Z,102640.06
2022-09-01T02:34:24.146Z,102641.00
2022-09-01T02:36:54.501Z,102633.97
2022-09-01T02:39:29.123Z,102616.44
2022-09-01T02:41:56.901Z,102628.72
2022-09-01T02:44:23.975Z,102624.31
2022-09-01T02:46:51.504Z,102635.75
2022-09-01T02:49:28.621Z,102626.09
2022-09-01T02:52:01.513Z,102640.16
2022-09-01T02:54:32.635Z,102634.88
2022-09-01T02:57:00.973Z,102635.78
2022-09-01T02:59:30.592Z,102635.78
2022-09-01T03:01:58.368Z,102635.81
2022-09-01T03:04:27.289Z,102635.78
2022-09-01T03:06:58.702Z,102627.94
2022-09-01T03:09:25.970Z,102644.59
2022-09-01T03:11:55.166Z,102627.91
2022-09-01T03:14:24.305Z,102641.97
2022-09-01T03:16:52.432Z,102649.91
2022-09-01T03:19:20.140Z,102642.84
2022-09-01T03:21:48.696Z,102638.50
2022-09-01T03:24:18.436Z,102643.78
2022-09-01T03:26:50.135Z,102633.25
2022-09-01T03:29:19.306Z,102642.03
2022-09-01T03:31:46.691Z,102633.28
2022-09-01T03:34:16.400Z,102623.63
2022-09-01T03:36:50.338Z,102629.78
2022-09-01T03:39:19.654Z,102633.31
2022-09-01T03:41:46.899Z,102625.47
2022-09-01T03:44:16.296Z,102641.25
2022-09-01T03:46:44.849Z,102625.47
2022-09-01T03:49:15.517Z,102636.88
2022-09-01T03:51:45.265Z,102620.22
2022-09-01T03:54:13.220Z,102643.94
2022-09-01T03:56:41.622Z,102636.88
2022-09-01T03:59:16.763Z,102622.00
2022-09-01T04:01:45.863Z,102636.88
2022-09-01T04:04:14.887Z,102632.50
2022-09-01T04:06:45.013Z,102637.78
2022-09-01T04:09:12.831Z,102643.06
2022-09-01T04:11:45.828Z,102637.78
2022-09-01T04:14:13.724Z,102636.91
2022-09-01T04:16:59.183Z,102636.97
2022-09-01T04:19:27.079Z,102632.56
2022-09-01T04:22:02.798Z,102637.84
2022-09-01T04:24:33.210Z,102620.31
2022-09-01T04:27:02.992Z,102641.38
2022-09-01T04:29:31.982Z,102638.72
2022-09-01T04:32:09.786Z,102625.59
2022-09-01T04:34:39.822Z,102629.06
2022-09-01T04:37:18.943Z,102641.34
2022-09-01T04:39:55.680Z,102629.94
2022-09-01T04:42:29.170Z,102637.78
2022-09-01T04:44:57.696Z,102627.28
2022-09-01T04:47:36.341Z,102624.56
2022-09-01T04:50:13.851Z,102641.06
2022-09-01T04:52:43.563Z,102633.88
2022-09-01T04:55:18.262Z,102633.69
2022-09-01T04:57:50.262Z,102643.09
2022-09-01T05:00:37.396Z,102623.53
2022-09-01T05:03:05.136Z,102634.63
2022-09-01T05:05:45.235Z,102639.69
2022-09-01T05:08:22.996Z,102634.09
2022-09-01T05:10:55.624Z,102635.59
2022-09-01T05:13:23.699Z,102619.59
2022-09-01T05:16:06.515Z,102627.28
2022-09-01T05:18:34.038Z,102626.19
2022-09-01T05:21:09.922Z,102621.69
2022-09-01T05:23:40.677Z,102632.81
2022-09-01T05:26:18.538Z,102622.16
2022-09-01T05:28:53.958Z,102630.03
2022-09-01T05:31:22.712Z,102641.59
2022-09-01T05:33:51.081Z,102632.91
2022-09-01T05:36:22.983Z,102634.84
2022-09-01T05:38:52.392Z,102617.44
2022-09-01T05:41:21.258Z,102622.72
2022-09-01T05:43:57.834Z,102629.03
2022-09-01T05:46:28.230Z,102612.47
2022-09-01T05:48:57.269Z,102614.31
2022-09-01T05:51:45.905Z,102607.44
2022-09-01T05:54:23.239Z,102625.94
2022-09-01T05:56:50.901Z,102597.09
2022-09-01T05:59:25.377Z,102622.56
2022-09-01T06:01:54.955Z,102592.03
2022-09-01T06:04:25.508Z,102599.94
2022-09-01T06:07:06.593Z,102617.47
2022-09-01T06:09:42.098Z,102614.88
2022-09-01T06:12:17.922Z,102618.41
2022-09-01T06:14:51.357Z,102623.72
2022-09-01T06:17:24.956Z,102621.97
2022-09-01T06:19:56.878Z,102621.03
2022-09-01T06:22:28.248Z,102623.63
2022-09-01T06:25:01.903Z,102565.78
2022-09-01T06:27:29.720Z,102610.28
2022-09-01T06:29:58.346Z,102616.31
2022-09-01T06:32:27.080Z,102620.69
2022-09-01T06:34:56.305Z,102616.22
2022-09-01T06:37:23.394Z,102619.69
2022-09-01T06:39:51.226Z,102619.59
2022-09-01T06:42:19.966Z,102630.03
2022-09-01T06:44:47.345Z,102628.22
2022-09-01T06:47:15.602Z,102637.81
2022-09-01T06:49:43.002Z,102620.16
2022-09-01T06:52:11.821Z,102640.25
2022-09-01T06:54:39.667Z,102635.69
2022-09-01T06:59:54.473Z,102635.28
2022-09-01T07:02:26.766Z,102506.50
2022-09-01T07:04:54.903Z,102627.00
2022-09-01T07:10:25.413Z,102634.44
2022-09-01T07:13:11.830Z,102622.88
2022-09-01T07:18:31.244Z,102635.78
2022-09-01T07:21:06.967Z,102635.56
2022-09-01T07:24:07.800Z,102624.06
2022-09-01T07:26:26.489Z,102634.97
2022-09-01T07:29:01.028Z,102640.88
2022-09-01T07:34:42.174Z,102634.13
2022-09-01T07:38:47.016Z,102632.22
2022-09-01T07:43:09.539Z,102623.31
2022-09-01T07:45:47.195Z,102638.13
2022-09-01T07:51:35.563Z,102637.25
2022-09-01T07:53:55.664Z,102644.38
2022-09-01T07:56:25.189Z,102637.22
2022-09-01T07:58:53.357Z,102646.84
2022-09-01T08:01:27.524Z,102639.72
2022-09-01T08:04:02.142Z,102642.97
2022-09-01T08:06:37.870Z,102633.94
2022-09-01T08:09:11.850Z,102626.63
2022-09-01T08:12:01.206Z,102641.44
2022-09-01T08:14:27.732Z,102639.34
2022-09-01T08:17:15.809Z,102639.13
2022-09-01T08:19:43.972Z,102632.13
2022-09-01T08:22:11.106Z,102629.22
2022-09-01T08:24:38.167Z,102617.72
2022-09-01T08:27:05.186Z,102631.63
2022-09-01T08:29:32.770Z,102631.50
2022-09-01T08:32:00.391Z,102616.38
2022-09-01T08:34:28.317Z,102630.16
2022-09-01T08:36:55.329Z,102619.34
2022-09-01T08:39:22.502Z,102639.50
2022-09-01T08:42:02.579Z,102638.44
2022-09-01T08:45:03.177Z,102593.03
2022-09-01T08:47:44.348Z,102647.56
2022-09-01T08:50:20.728Z,102643.09
2022-09-01T08:53:10.565Z,102641.00
2022-09-01T08:55:45.646Z,102640.72
2022-09-01T08:58:17.857Z,102646.25
2022-09-01T09:00:57.897Z,102651.84
2022-09-01T09:03:59.114Z,102651.16
2022-09-01T09:07:03.999Z,102652.28
2022-09-01T09:09:54.004Z,102633.13
2022-09-01T09:13:00.573Z,102645.47
2022-09-01T09:15:47.540Z,102649.91
2022-09-01T09:18:39.223Z,102646.31
2022-09-01T09:21:35.096Z,102641.91
2022-09-01T09:24:49.993Z,102643.50
2022-09-01T09:27:30.882Z,102651.03
2022-09-01T09:30:11.202Z,102646.97
2022-09-01T09:35:40.409Z,102640.22
2022-09-01T09:38:21.084Z,102642.06
2022-09-01T09:41:18.445Z,102648.41
2022-09-01T09:44:05.813Z,102651.19
2022-09-01T09:46:37.959Z,102648.66
2022-09-01T09:49:34.727Z,102638.22
2022-09-01T09:52:09.547Z,102650.47
2022-09-01T09:54:58.814Z,102646.13
2022-09-01T09:57:25.853Z,102644.84
2022-09-01T10:00:00.669Z,102644.97
2022-09-01T10:02:39.928Z,102638.88
2022-09-01T10:05:51.555Z,102635.50
2022-09-01T10:08:28.450Z,102639.09
2022-09-01T10:10:58.335Z,102635.59
2022-09-01T10:13:33.021Z,102622.31
2022-09-01T10:16:15.799Z,102627.28
2022-09-01T10:18:51.910Z,102621.63
2022-09-01T10:21:30.143Z,102630.13
2022-09-01T10:24:30.921Z,102621.84
2022-09-01T10:27:03.954Z,102627.88
2022-09-01T10:29:50.825Z,102620.69
2022-09-01T10:32:37.222Z,102628.38
2022-09-01T10:35:47.245Z,102630.94
2022-09-01T10:38:28.919Z,102619.47
2022-09-01T10:41:09.119Z,102633.63
2022-09-01T10:43:45.489Z,102627.44
2022-09-01T10:46:25.869Z,102627.31
2022-09-01T10:49:03.118Z,102630.78
2022-09-01T10:51:36.250Z,102634.16
2022-09-01T10:54:06.771Z,102634.09
2022-09-01T10:56:52.559Z,102624.22
2022-09-01T10:59:37.391Z,102616.19
2022-09-01T11:02:29.542Z,102581.97
2022-09-01T11:05:02.547Z,102614.94
2022-09-01T11:07:59.866Z,102609.28
2022-09-01T11:11:07.375Z,102564.81
2022-09-01T11:13:51.999Z,102611.75
2022-09-01T11:16:53.216Z,102620.25
2022-09-01T11:19:45.123Z,102616.47
2022-09-01T11:22:38.117Z,102611.81
2022-09-01T11:25:42.262Z,102612.75
2022-09-01T11:28:17.992Z,102609.19
2022-09-01T11:30:55.344Z,102607.34
2022-09-01T11:33:34.534Z,102604.56
2022-09-01T11:36:28.632Z,102598.53
2022-09-01T11:39:15.722Z,102606.56
2022-09-01T11:42:14.739Z,102602.16
2022-09-01T11:45:21.486Z,102597.81
2022-09-01T11:48:09.711Z,102594.47
2022-09-01T11:50:43.958Z,102597.06
2022-09-01T11:53:14.860Z,102591.72
2022-09-01T11:55:57.290Z,102587.16
2022-09-01T11:58:31.965Z,102594.72
2022-09-01T12:01:33.999Z,102588.47
2022-09-01T12:04:38.048Z,102591.22
2022-09-01T12:07:23.865Z,102581.94
2022-09-01T12:09:56.803Z,102582.16
2022-09-01T12:12:36.765Z,102588.19
2022-09-01T12:15:28.947Z,102577.59
2022-09-01T12:18:22.675Z,102575.53
2022-09-01T12:20:53.482Z,102578.03
2022-09-01T12:23:31.378Z,102568.28
2022-09-01T12:26:11.734Z,102574.41
2022-09-01T12:28:41.735Z,102571.59
2022-09-01T12:31:20.544Z,102568.19
2022-09-01T12:33:48.422Z,102575.44
2022-09-01T12:36:31.887Z,102569.59
2022-09-01T12:39:24.911Z,102558.41
2022-09-01T12:42:10.797Z,102571.88
2022-09-01T12:44:37.914Z,102568.25
2022-09-01T12:47:31.899Z,102579.53
2022-09-01T12:50:05.350Z,102565.19
2022-09-01T12:52:46.234Z,102554.72
2022-09-01T12:58:10.686Z,102544.16
2022-09-01T13:00:58.576Z,102556.25
2022-09-01T13:03:27.637Z,102569.44
2022-09-01T13:05:59.370Z,102547.19
2022-09-01T13:08:33.025Z,102553.13
2022-09-01T13:11:14.616Z,102549.47
2022-09-01T13:13:42.438Z,102539.88
2022-09-01T13:16:14.179Z,102557.41
2022-09-01T13:21:34.703Z,102532.41
2022-09-01T13:24:07.805Z,102550.47
2022-09-01T13:26:35.194Z,102553.06
2022-09-01T13:29:02.686Z,102546.88
2022-09-01T13:31:31.807Z,102542.31
2022-09-01T13:34:23.169Z,102549.00
2022-09-01T13:36:51.524Z,102564.78
2022-09-01T13:39:20.357Z,102550.50
2022-09-01T13:41:49.533Z,102550.41
2022-09-01T13:44:18.497Z,102556.50
2022-09-01T13:49:43.673Z,102550.53
2022-09-01T13:52:13.050Z,102548.88
2022-09-01T13:54:40.393Z,102548.72
2022-09-01T13:57:07.586Z,102553.13
2022-09-01T13:59:34.758Z,102539.78
2022-09-01T14:02:02.550Z,102549.41
2022-09-01T14:04:38.933Z,102541.41
2022-09-01T14:07:06.896Z,102532.81
2022-09-01T14:09:34.697Z,102549.38
2022-09-01T14:12:02.727Z,102527.56
2022-09-01T14:15:11.173Z,102526.59
2022-09-01T14:17:17.495Z,102525.84
2022-09-01T14:19:52.990Z,102530.88
2022-09-01T14:22:20.670Z,102529.28
2022-09-01T14:24:52.334Z,102523.91
2022-09-01T14:27:20.270Z,102526.47
2022-09-01T14:29:54.843Z,102528.94
2022-09-01T14:32:26.965Z,102518.28
2022-09-01T14:34:56.214Z,102520.09
2022-09-01T14:37:24.593Z,102328.47
2022-09-01T14:39:54.596Z,102497.34
2022-09-01T14:42:25.878Z,102512.06
2022-09-01T14:44:53.098Z,102514.63
2022-09-01T14:47:24.790Z,102515.41
2022-09-01T14:49:54.484Z,102514.63
2022-09-01T14:52:22.228Z,102506.66
2022-09-01T14:54:50.094Z,102513.75
2022-09-01T14:57:37.205Z,102508.41
2022-09-01T15:00:12.108Z,102487.28
2022-09-01T15:02:42.767Z,102508.34
2022-09-01T15:05:12.366Z,102497.63
2022-09-01T15:07:47.298Z,102499.38
2022-09-01T15:10:24.669Z,102493.06
2022-09-01T15:12:58.732Z,102478.91
2022-09-01T15:15:28.167Z,102486.88
2022-09-01T15:17:56.545Z,102471.75
2022-09-01T15:20:43.680Z,102473.50
2022-09-01T15:23:17.309Z,102475.31
2022-09-01T15:25:45.343Z,102473.72
2022-09-01T15:28:13.352Z,102470.22
2022-09-01T15:30:41.317Z,102478.25
2022-09-01T15:33:13.372Z,102457.41
2022-09-01T15:35:44.835Z,102452.25
2022-09-01T15:38:17.101Z,102466.09
2022-09-01T15:40:52.046Z,102460.75
2022-09-01T15:43:26.331Z,102459.16
2022-09-01T15:45:53.510Z,102456.56
2022-09-01T15:48:20.900Z,102447.72
2022-09-01T15:50:48.111Z,102465.16
2022-09-01T15:53:15.263Z,102463.38
2022-09-01T15:55:46.697Z,102468.75
2022-09-01T15:58:18.524Z,102463.63
2022-09-01T16:00:46.343Z,102458.19
2022-09-01T16:03:13.832Z,102452.09
2022-09-01T16:05:41.490Z,102452.84
2022-09-01T16:08:10.041Z,102451.03
2022-09-01T16:10:40.055Z,102444.25
2022-09-01T16:13:10.801Z,102449.50
2022-09-01T16:15:48.863Z,102454.81
2022-09-01T16:18:41.733Z,102437.41
2022-09-01T16:21:48.218Z,102450.72
2022-09-01T16:24:15.542Z,102448.16
2022-09-01T16:26:48.185Z,102440.31
2022-09-01T16:29:44.553Z,102452.72
2022-09-01T16:32:13.357Z,102449.34
2022-09-01T16:34:52.539Z,102449.38
2022-09-01T16:37:34.856Z,102447.72
2022-09-01T16:40:25.420Z,102445.31
2022-09-01T16:43:38.773Z,102457.00
2022-09-01T16:46:09.896Z,102452.81
2022-09-01T16:49:14.587Z,102456.44
2022-09-01T16:52:30.153Z,102460.94
2022-09-01T16:55:22.877Z,102428.72
2022-09-01T16:58:46.186Z,102456.72
2022-09-01T17:01:19.194Z,102460.41
2022-09-01T17:04:07.900Z,102457.81
2022-09-01T17:06:57.225Z,102458.81
2022-09-01T17:09:35.682Z,102459.84
2022-09-01T17:12:41.256Z,102464.44
2022-09-01T17:15:14.873Z,102460.38
2022-09-01T17:18:05.924Z,102466.53
2022-09-01T17:20:40.169Z,102471.06
2022-09-01T17:23:15.532Z,102469.50
2022-09-01T17:26:01.651Z,102472.41
2022-09-01T17:28:45.191Z,102468.97
2022-09-01T17:31:22.714Z,102467.56
2022-09-01T17:34:07.747Z,102476.56
2022-09-01T17:36:49.376Z,102485.47
2022-09-01T17:39:45.907Z,102480.34
2022-09-01T17:42:38.284Z,102492.03
2022-09-01T17:45:13.148Z,102497.47
2022-09-01T17:48:08.935Z,102494.13
2022-09-01T17:50:59.533Z,102501.38
2022-09-01T17:53:42.743Z,102494.44
2022-09-01T17:56:36.013Z,102500.78
2022-09-01T17:59:06.330Z,102497.38
2022-09-01T18:02:09.975Z,102490.59
2022-09-01T18:05:13.090Z,102511.78
2022-09-01T18:08:11.508Z,102485.63
2022-09-01T18:10:47.463Z,102502.38
2022-09-01T18:13:58.913Z,102476.41
2022-09-01T18:16:31.848Z,102489.56
2022-09-01T18:19:12.519Z,102504.53
2022-09-01T18:21:54.847Z,102488.03
2022-09-01T18:24:41.972Z,102514.28
2022-09-01T18:27:09.471Z,102510.88
2022-09-01T18:29:36.568Z,102492.63
2022-09-01T18:32:25.437Z,102513.69
2022-09-01T18:35:23.198Z,102515.56
2022-09-01T18:38:31.456Z,102518.25
2022-09-01T18:41:22.696Z,102514.81
2022-09-01T18:44:36.952Z,102525.53
2022-09-01T18:47:11.494Z,102529.13
2022-09-01T18:50:18.557Z,102529.22
2022-09-01T18:53:27.066Z,102264.78
2022-09-01T18:56:31.453Z,102528.53
2022-09-01T18:59:37.085Z,102537.47
2022-09-01T19:02:31.850Z,102534.91
2022-09-01T19:05:16.669Z,102533.25
2022-09-01T19:08:17.317Z,102511.53
2022-09-01T19:11:11.719Z,102515.13
2022-09-01T19:13:44.933Z,102537.94
2022-09-01T19:16:36.688Z,102535.38
2022-09-01T19:19:12.413Z,102533.66
2022-09-01T19:21:39.855Z,102505.81
2022-09-01T19:24:35.571Z,102535.53
2022-09-01T19:27:28.287Z,102539.19
2022-09-01T19:30:04.533Z,102544.50
2022-09-01T19:32:36.248Z,102525.22
2022-09-01T19:35:14.545Z,102541.97
2022-09-01T19:37:44.398Z,102538.50
2022-09-01T19:40:13.123Z,102539.38
2022-09-01T19:43:10.014Z,102544.75
2022-09-01T19:46:28.497Z,102552.78
2022-09-01T19:49:23.219Z,102551.94
2022-09-01T19:52:09.036Z,102545.84
2022-09-01T19:54:52.899Z,102541.56
2022-09-01T19:57:32.499Z,102551.19
2022-09-01T20:00:27.216Z,102541.63
2022-09-01T20:03:20.510Z,102557.47
2022-09-01T20:06:01.602Z,102553.97
2022-09-01T20:08:48.018Z,102559.31
2022-09-01T20:11:40.082Z,102559.31
2022-09-01T20:14:44.047Z,102561.13
2022-09-01T20:17:34.915Z,102555.91
2022-09-01T20:20:21.761Z,102554.13
2022-09-01T20:23:00.526Z,102554.16
2022-09-01T20:25:42.071Z,102555.09
2022-09-01T20:28:39.284Z,102549.88
2022-09-01T20:31:27.998Z,102534.09
2022-09-01T20:34:09.589Z,102537.75
2022-09-01T20:36:50.438Z,102534.25
2022-09-01T20:40:01.310Z,102550.97
2022-09-01T20:42:48.438Z,102548.31
2022-09-01T20:45:28.057Z,102551.88
2022-09-01T20:48:04.596Z,102544.84
2022-09-01T20:50:48.966Z,102551.97
2022-09-01T20:53:15.862Z,102552.00
2022-09-01T20:56:29.680Z,102556.41
2022-09-01T20:59:22.187Z,102555.56
2022-09-01T21:02:23.098Z,102552.94
2022-09-01T21:05:14.987Z,102539.84
2022-09-01T21:07:49.994Z,102552.13
2022-09-01T21:10:54.203Z,102551.25
2022-09-01T21:13:54.557Z,102541.63
2022-09-01T21:16:45.807Z,102554.84
2022-09-01T21:19:35.407Z,102539.09
2022-09-01T21:22:07.501Z,102554.88
2022-09-01T21:24:35.855Z,102559.34
2022-09-01T21:27:08.008Z,102558.47
2022-09-01T21:29:58.182Z,102556.78
2022-09-01T21:32:29.008Z,102550.56
2022-09-01T21:34:57.702Z,102542.72
2022-09-01T21:37:27.575Z,102550.56
2022-09-01T21:39:56.059Z,102553.22
2022-09-01T21:42:40.168Z,102555.88
2022-09-01T21:45:12.777Z,102560.31
2022-09-01T21:47:42.786Z,102552.44
2022-09-01T21:50:11.511Z,102552.44
2022-09-01T21:52:38.816Z,102548.06
2022-09-01T21:55:08.267Z,102536.69
2022-09-01T21:57:36.538Z,102548.13
2022-09-01T22:00:18.088Z,102533.22
2022-09-01T22:02:46.247Z,102541.16
2022-09-01T22:05:14.689Z,102549.94
2022-09-01T22:07:45.398Z,102550.81
2022-09-01T22:10:21.137Z,102546.44
2022-09-01T22:12:50.214Z,102555.28
2022-09-01T22:15:22.378Z,102543.91
2022-09-01T22:17:56.828Z,102558.84
2022-09-01T22:20:28.458Z,102545.72
2022-09-01T22:22:57.882Z,102555.38
2022-09-01T22:25:25.549Z,102553.63
2022-09-01T22:27:52.616Z,102551.00
2022-09-01T22:30:19.619Z,102557.22
2022-09-01T22:32:47.947Z,102553.72
2022-09-01T22:35:18.318Z,102554.63
2022-09-01T22:37:46.375Z,102553.75
2022-09-01T22:40:15.581Z,102551.16
2022-09-01T22:42:43.972Z,102557.41
2022-09-01T22:45:13.183Z,102559.19
2022-09-01T22:47:40.769Z,102548.63
2022-09-01T22:50:10.165Z,102549.56
2022-09-01T22:52:38.350Z,102548.75
2022-09-01T22:55:08.985Z,102547.88
2022-09-01T22:57:38.930Z,102551.41
2022-09-01T23:00:10.219Z,102546.19
2022-09-01T23:02:37.521Z,102544.47
2022-09-01T23:05:06.072Z,102545.31
2022-09-01T23:07:39.494Z,102540.06
2022-09-01T23:10:08.908Z,102533.97
2022-09-01T23:12:36.216Z,102542.78
2022-09-01T23:15:04.331Z,102534.88
2022-09-01T23:17:31.846Z,102534.84
2022-09-01T23:20:02.261Z,102547.16
2022-09-01T23:22:29.331Z,102538.41
2022-09-01T23:24:56.302Z,102533.09
2022-09-01T23:27:23.422Z,102535.78
2022-09-01T23:29:51.286Z,102532.31
2022-09-01T23:32:18.312Z,102527.06
2022-09-01T23:34:45.450Z,102536.72
2022-09-01T23:37:13.443Z,102522.72
2022-09-01T23:39:40.663Z,102526.19
2022-09-01T23:42:08.075Z,102514.81
2022-09-01T23:44:36.899Z,102513.94
2022-09-01T23:47:04.721Z,102520.97
2022-09-01T23:49:32.164Z,102512.22
2022-09-01T23:51:59.597Z,102521.00
2022-09-01T23:54:26.816Z,102527.19
2022-09-01T23:56:54.355Z,102526.31
2022-09-01T23:59:27.210Z,102514.06
